sensor_id;sensor_type;location;lat;lon;timestamp;P1;durP1;ratioP1;P2;durP2;ratioP2
32826;SDS011;51059;42.058;27.986;2023-06-24T00:02:20;20.10;;;14.70;;
32826;SDS011;51059;42.058;27.986;2023-06-24T00:04:49;18.27;;;15.57;;
32826;SDS011;51059;42.058;27.986;2023-06-24T00:07:15;18.60;;;15.52;;
32826;SDS011;51059;42.058;27.986;2023-06-24T00:09:41;19.73;;;15.03;;
32826;SDS011;51059;42.058;27.986;2023-06-24T00:12:07;17.93;;;15.13;;
32826;SDS011;51059;42.058;27.986;2023-06-24T00:14:32;19.10;;;16.13;;
32826;SDS011;51059;42.058;27.986;2023-06-24T00:16:58;17.50;;;15.60;;
32826;SDS011;51059;42.058;27.986;2023-06-24T00:19:25;20.83;;;15.53;;
32826;SDS011;51059;42.058;27.986;2023-06-24T00:21:51;19.10;;;16.30;;
32826;SDS011;51059;42.058;27.986;2023-06-24T00:24:19;17.57;;;15.77;;
32826;SDS011;51059;42.058;27.986;2023-06-24T00:26:48;18.47;;;16.37;;
32826;SDS011;51059;42.058;27.986;2023-06-24T00:29:14;17.30;;;15.13;;
32826;SDS011;51059;42.058;27.986;2023-06-24T00:31:40;18.60;;;15.43;;
32826;SDS011;51059;42.058;27.986;2023-06-24T00:34:06;18.47;;;15.70;;
32826;SDS011;51059;42.058;27.986;2023-06-24T00:36:32;18.47;;;15.53;;
32826;SDS011;51059;42.058;27.986;2023-06-24T00:38:57;20.57;;;15.07;;
32826;SDS011;51059;42.058;27.986;2023-06-24T00:41:29;18.93;;;15.37;;
32826;SDS011;51059;42.058;27.986;2023-06-24T00:43:55;17.00;;;14.60;;
32826;SDS011;51059;42.058;27.986;2023-06-24T00:46:23;16.97;;;15.17;;
32826;SDS011;51059;42.058;27.986;2023-06-24T00:49:05;21.40;;;15.20;;
32826;SDS011;51059;42.058;27.986;2023-06-24T00:51:30;16.13;;;14.30;;
32826;SDS011;51059;42.058;27.986;2023-06-24T00:53:58;16.60;;;14.90;;
32826;SDS011;51059;42.058;27.986;2023-06-24T00:56:34;17.07;;;14.53;;
32826;SDS011;51059;42.058;27.986;2023-06-24T00:59:00;19.83;;;14.13;;
32826;SDS011;51059;42.058;27.986;2023-06-24T01:01:28;15.90;;;14.20;;
32826;SDS011;51059;42.058;27.986;2023-06-24T01:03:54;16.17;;;13.60;;
32826;SDS011;51059;42.058;27.986;2023-06-24T01:06:20;19.90;;;14.30;;
32826;SDS011;51059;42.058;27.986;2023-06-24T01:08:46;15.90;;;14.20;;
32826;SDS011;51059;42.058;27.986;2023-06-24T01:11:16;17.33;;;14.15;;
32826;SDS011;51059;42.058;27.986;2023-06-24T01:13:42;19.00;;;14.07;;
32826;SDS011;51059;42.058;27.986;2023-06-24T01:16:10;17.07;;;14.20;;
32826;SDS011;51059;42.058;27.986;2023-06-24T01:18:48;16.13;;;14.20;;
32826;SDS011;51059;42.058;27.986;2023-06-24T01:21:17;16.30;;;14.60;;
32826;SDS011;51059;42.058;27.986;2023-06-24T01:23:58;16.90;;;12.98;;
32826;SDS011;51059;42.058;27.986;2023-06-24T01:36:59;16.67;;;14.33;;
32826;SDS011;51059;42.058;27.986;2023-06-24T01:39:26;15.57;;;13.90;;
32826;SDS011;51059;42.058;27.986;2023-06-24T01:41:59;17.03;;;13.57;;
32826;SDS011;51059;42.058;27.986;2023-06-24T01:44:27;15.27;;;13.70;;
32826;SDS011;51059;42.058;27.986;2023-06-24T01:46:53;15.33;;;13.73;;
32826;SDS011;51059;42.058;27.986;2023-06-24T01:49:22;15.80;;;14.10;;
32826;SDS011;51059;42.058;27.986;2023-06-24T01:51:48;15.83;;;13.77;;
32826;SDS011;51059;42.058;27.986;2023-06-24T01:54:15;15.80;;;14.10;;
32826;SDS011;51059;42.058;27.986;2023-06-24T01:56:44;15.13;;;13.63;;
32826;SDS011;51059;42.058;27.986;2023-06-24T01:59:11;16.30;;;14.30;;
32826;SDS011;51059;42.058;27.986;2023-06-24T02:01:37;16.53;;;14.17;;
32826;SDS011;51059;42.058;27.986;2023-06-24T02:04:04;16.37;;;14.13;;
32826;SDS011;51059;42.058;27.986;2023-06-24T02:06:32;17.13;;;13.57;;
32826;SDS011;51059;42.058;27.986;2023-06-24T02:08:58;18.57;;;13.57;;
32826;SDS011;51059;42.058;27.986;2023-06-24T02:11:26;16.97;;;14.20;;
32826;SDS011;51059;42.058;27.986;2023-06-24T02:13:53;16.60;;;13.17;;
32826;SDS011;51059;42.058;27.986;2023-06-24T02:16:20;17.48;;;14.05;;
32826;SDS011;51059;42.058;27.986;2023-06-24T02:18:47;15.10;;;12.97;;
32826;SDS011;51059;42.058;27.986;2023-06-24T02:21:14;15.57;;;13.90;;
32826;SDS011;51059;42.058;27.986;2023-06-24T02:23:41;15.27;;;12.83;;
32826;SDS011;51059;42.058;27.986;2023-06-24T02:26:07;21.10;;;13.57;;
32826;SDS011;51059;42.058;27.986;2023-06-24T02:28:34;15.40;;;13.43;;
32826;SDS011;51059;42.058;27.986;2023-06-24T02:31:00;17.00;;;13.70;;
32826;SDS011;51059;42.058;27.986;2023-06-24T02:33:26;16.07;;;13.63;;
32826;SDS011;51059;42.058;27.986;2023-06-24T02:35:52;18.77;;;13.57;;
32826;SDS011;51059;42.058;27.986;2023-06-24T02:38:18;14.77;;;13.27;;
32826;SDS011;51059;42.058;27.986;2023-06-24T02:40:47;17.13;;;13.97;;
32826;SDS011;51059;42.058;27.986;2023-06-24T02:43:13;14.13;;;12.47;;
32826;SDS011;51059;42.058;27.986;2023-06-24T02:45:38;14.97;;;12.93;;
32826;SDS011;51059;42.058;27.986;2023-06-24T02:48:04;14.23;;;12.77;;
32826;SDS011;51059;42.058;27.986;2023-06-24T02:50:30;13.40;;;12.10;;
32826;SDS011;51059;42.058;27.986;2023-06-24T02:52:57;14.07;;;12.13;;
32826;SDS011;51059;42.058;27.986;2023-06-24T02:55:23;14.60;;;11.50;;
32826;SDS011;51059;42.058;27.986;2023-06-24T02:57:48;13.30;;;11.30;;
32826;SDS011;51059;42.058;27.986;2023-06-24T03:00:17;11.90;;;10.10;;
32826;SDS011;51059;42.058;27.986;2023-06-24T03:02:43;11.60;;;10.40;;
32826;SDS011;51059;42.058;27.986;2023-06-24T03:05:09;13.27;;;10.70;;
32826;SDS011;51059;42.058;27.986;2023-06-24T03:07:36;10.83;;;9.73;;
32826;SDS011;51059;42.058;27.986;2023-06-24T03:10:03;12.00;;;9.63;;
32826;SDS011;51059;42.058;27.986;2023-06-24T03:12:30;11.02;;;9.57;;
32826;SDS011;51059;42.058;27.986;2023-06-24T03:14:56;9.48;;;8.57;;
32826;SDS011;51059;42.058;27.986;2023-06-24T03:17:21;10.60;;;9.13;;
32826;SDS011;51059;42.058;27.986;2023-06-24T03:19:47;14.25;;;12.73;;
32826;SDS011;51059;42.058;27.986;2023-06-24T03:22:12;14.65;;;8.48;;
32826;SDS011;51059;42.058;27.986;2023-06-24T03:24:38;9.43;;;8.07;;
32826;SDS011;51059;42.058;27.986;2023-06-24T03:27:05;10.23;;;8.07;;
32826;SDS011;51059;42.058;27.986;2023-06-24T03:29:31;10.48;;;7.80;;
32826;SDS011;51059;42.058;27.986;2023-06-24T03:31:57;8.48;;;7.00;;
32826;SDS011;51059;42.058;27.986;2023-06-24T03:34:23;9.85;;;7.20;;
32826;SDS011;51059;42.058;27.986;2023-06-24T03:36:50;7.75;;;6.95;;
32826;SDS011;51059;42.058;27.986;2023-06-24T03:39:16;8.25;;;7.45;;
32826;SDS011;51059;42.058;27.986;2023-06-24T03:41:41;7.18;;;6.57;;
32826;SDS011;51059;42.058;27.986;2023-06-24T03:44:07;9.45;;;6.80;;
32826;SDS011;51059;42.058;27.986;2023-06-24T03:46:33;8.90;;;6.82;;
32826;SDS011;51059;42.058;27.986;2023-06-24T03:48:59;6.68;;;5.88;;
32826;SDS011;51059;42.058;27.986;2023-06-24T03:51:25;8.10;;;6.25;;
32826;SDS011;51059;42.058;27.986;2023-06-24T03:53:51;8.20;;;5.88;;
32826;SDS011;51059;42.058;27.986;2023-06-24T03:56:17;6.53;;;5.55;;
32826;SDS011;51059;42.058;27.986;2023-06-24T03:58:43;10.60;;;9.60;;
32826;SDS011;51059;42.058;27.986;2023-06-24T04:01:09;11.88;;;10.65;;
32826;SDS011;51059;42.058;27.986;2023-06-24T04:03:35;9.48;;;8.68;;
32826;SDS011;51059;42.058;27.986;2023-06-24T04:06:01;13.13;;;11.93;;
32826;SDS011;51059;42.058;27.986;2023-06-24T04:08:29;12.40;;;10.07;;
32826;SDS011;51059;42.058;27.986;2023-06-24T04:10:56;9.13;;;6.55;;
32826;SDS011;51059;42.058;27.986;2023-06-24T04:13:22;6.95;;;6.20;;
32826;SDS011;51059;42.058;27.986;2023-06-24T04:15:47;5.47;;;4.97;;
32826;SDS011;51059;42.058;27.986;2023-06-24T04:18:13;7.47;;;6.15;;
32826;SDS011;51059;42.058;27.986;2023-06-24T04:20:39;18.88;;;12.40;;
32826;SDS011;51059;42.058;27.986;2023-06-24T04:23:05;25.33;;;23.15;;
32826;SDS011;51059;42.058;27.986;2023-06-24T04:25:36;11.93;;;10.52;;
32826;SDS011;51059;42.058;27.986;2023-06-24T04:28:02;19.92;;;18.13;;
32826;SDS011;51059;42.058;27.986;2023-06-24T04:30:27;6.50;;;5.90;;
32826;SDS011;51059;42.058;27.986;2023-06-24T04:32:54;5.63;;;5.10;;
32826;SDS011;51059;42.058;27.986;2023-06-24T04:35:20;6.22;;;5.47;;
32826;SDS011;51059;42.058;27.986;2023-06-24T04:37:46;8.48;;;5.57;;
32826;SDS011;51059;42.058;27.986;2023-06-24T04:40:12;5.15;;;4.70;;
32826;SDS011;51059;42.058;27.986;2023-06-24T04:42:46;7.88;;;5.90;;
32826;SDS011;51059;42.058;27.986;2023-06-24T04:45:12;5.97;;;5.38;;
32826;SDS011;51059;42.058;27.986;2023-06-24T04:47:37;8.45;;;6.00;;
32826;SDS011;51059;42.058;27.986;2023-06-24T04:50:03;11.88;;;10.77;;
32826;SDS011;51059;42.058;27.986;2023-06-24T04:52:29;7.55;;;6.85;;
32826;SDS011;51059;42.058;27.986;2023-06-24T04:54:54;40.88;;;37.15;;
32826;SDS011;51059;42.058;27.986;2023-06-24T04:57:25;32.22;;;29.02;;
32826;SDS011;51059;42.058;27.986;2023-06-24T04:59:51;6.50;;;5.93;;
32826;SDS011;51059;42.058;27.986;2023-06-24T05:02:17;7.45;;;5.18;;
32826;SDS011;51059;42.058;27.986;2023-06-24T05:04:43;6.82;;;4.90;;
32826;SDS011;51059;42.058;27.986;2023-06-24T05:07:10;5.28;;;4.53;;
32826;SDS011;51059;42.058;27.986;2023-06-24T05:09:36;5.80;;;4.80;;
32826;SDS011;51059;42.058;27.986;2023-06-24T05:12:05;8.30;;;4.80;;
32826;SDS011;51059;42.058;27.986;2023-06-24T05:14:31;7.22;;;5.10;;
32826;SDS011;51059;42.058;27.986;2023-06-24T05:16:57;6.45;;;5.45;;
32826;SDS011;51059;42.058;27.986;2023-06-24T05:19:23;27.67;;;22.35;;
32826;SDS011;51059;42.058;27.986;2023-06-24T05:21:49;5.95;;;5.35;;
32826;SDS011;51059;42.058;27.986;2023-06-24T05:24:15;8.23;;;5.35;;
32826;SDS011;51059;42.058;27.986;2023-06-24T05:26:40;5.55;;;5.05;;
32826;SDS011;51059;42.058;27.986;2023-06-24T05:29:05;6.10;;;4.50;;
32826;SDS011;51059;42.058;27.986;2023-06-24T05:31:31;6.53;;;4.70;;
32826;SDS011;51059;42.058;27.986;2023-06-24T05:33:57;6.55;;;4.80;;
32826;SDS011;51059;42.058;27.986;2023-06-24T05:36:26;5.97;;;4.80;;
32826;SDS011;51059;42.058;27.986;2023-06-24T05:38:58;9.48;;;6.53;;
32826;SDS011;51059;42.058;27.986;2023-06-24T05:41:24;6.03;;;5.50;;
32826;SDS011;51059;42.058;27.986;2023-06-24T05:43:49;7.03;;;5.07;;
32826;SDS011;51059;42.058;27.986;2023-06-24T05:46:26;20.55;;;5.75;;
32826;SDS011;51059;42.058;27.986;2023-06-24T05:48:52;13.30;;;5.05;;
32826;SDS011;51059;42.058;27.986;2023-06-24T05:51:18;8.98;;;4.80;;
32826;SDS011;51059;42.058;27.986;2023-06-24T05:53:44;5.63;;;4.45;;
32826;SDS011;51059;42.058;27.986;2023-06-24T05:56:09;9.15;;;4.85;;
32826;SDS011;51059;42.058;27.986;2023-06-24T05:58:34;7.32;;;4.75;;
32826;SDS011;51059;42.058;27.986;2023-06-24T06:01:00;8.23;;;5.47;;
32826;SDS011;51059;42.058;27.986;2023-06-24T06:03:26;6.00;;;4.47;;
32826;SDS011;51059;42.058;27.986;2023-06-24T06:05:52;19.90;;;17.80;;
32826;SDS011;51059;42.058;27.986;2023-06-24T06:08:17;11.00;;;10.00;;
32826;SDS011;51059;42.058;27.986;2023-06-24T06:10:43;30.45;;;27.67;;
32826;SDS011;51059;42.058;27.986;2023-06-24T06:13:08;8.75;;;5.25;;
32826;SDS011;51059;42.058;27.986;2023-06-24T06:15:36;5.70;;;4.68;;
32826;SDS011;51059;42.058;27.986;2023-06-24T06:18:04;5.72;;;4.80;;
32826;SDS011;51059;42.058;27.986;2023-06-24T06:20:30;7.00;;;4.80;;
32826;SDS011;51059;42.058;27.986;2023-06-24T06:22:56;7.25;;;5.32;;
32826;SDS011;51059;42.058;27.986;2023-06-24T06:25:21;8.52;;;5.10;;
32826;SDS011;51059;42.058;27.986;2023-06-24T06:27:47;9.60;;;5.40;;
32826;SDS011;51059;42.058;27.986;2023-06-24T06:30:13;6.07;;;5.40;;
32826;SDS011;51059;42.058;27.986;2023-06-24T06:32:39;6.22;;;5.57;;
32826;SDS011;51059;42.058;27.986;2023-06-24T06:35:11;8.20;;;5.78;;
32826;SDS011;51059;42.058;27.986;2023-06-24T06:37:37;9.07;;;6.30;;
32826;SDS011;51059;42.058;27.986;2023-06-24T06:40:03;7.20;;;5.40;;
32826;SDS011;51059;42.058;27.986;2023-06-24T06:42:30;6.85;;;5.88;;
32826;SDS011;51059;42.058;27.986;2023-06-24T06:44:56;10.00;;;6.00;;
32826;SDS011;51059;42.058;27.986;2023-06-24T06:47:22;8.02;;;5.50;;
32826;SDS011;51059;42.058;27.986;2023-06-24T06:49:48;8.73;;;6.13;;
32826;SDS011;51059;42.058;27.986;2023-06-24T06:52:14;16.58;;;5.78;;
32826;SDS011;51059;42.058;27.986;2023-06-24T06:54:40;10.02;;;6.63;;
32826;SDS011;51059;42.058;27.986;2023-06-24T06:57:05;7.32;;;6.45;;
32826;SDS011;51059;42.058;27.986;2023-06-24T06:59:32;9.02;;;6.30;;
32826;SDS011;51059;42.058;27.986;2023-06-24T07:01:58;8.40;;;6.75;;
32826;SDS011;51059;42.058;27.986;2023-06-24T07:04:24;9.40;;;6.50;;
32826;SDS011;51059;42.058;27.986;2023-06-24T07:06:50;7.43;;;6.72;;
32826;SDS011;51059;42.058;27.986;2023-06-24T07:09:16;9.43;;;6.30;;
32826;SDS011;51059;42.058;27.986;2023-06-24T07:11:43;10.45;;;7.07;;
32826;SDS011;51059;42.058;27.986;2023-06-24T07:14:09;7.93;;;7.13;;
32826;SDS011;51059;42.058;27.986;2023-06-24T07:16:34;7.70;;;6.90;;
32826;SDS011;51059;42.058;27.986;2023-06-24T07:19:01;8.25;;;6.85;;
32826;SDS011;51059;42.058;27.986;2023-06-24T07:21:27;26.52;;;10.82;;
32826;SDS011;51059;42.058;27.986;2023-06-24T07:23:53;14.57;;;8.82;;
32826;SDS011;51059;42.058;27.986;2023-06-24T07:26:19;10.52;;;7.93;;
32826;SDS011;51059;42.058;27.986;2023-06-24T07:28:46;11.23;;;7.25;;
32826;SDS011;51059;42.058;27.986;2023-06-24T07:31:11;8.73;;;7.82;;
32826;SDS011;51059;42.058;27.986;2023-06-24T07:33:37;10.55;;;7.78;;
32826;SDS011;51059;42.058;27.986;2023-06-24T07:36:03;17.65;;;8.18;;
32826;SDS011;51059;42.058;27.986;2023-06-24T07:38:30;8.88;;;7.43;;
32826;SDS011;51059;42.058;27.986;2023-06-24T07:40:57;10.65;;;7.93;;
32826;SDS011;51059;42.058;27.986;2023-06-24T07:43:22;20.38;;;7.97;;
32826;SDS011;51059;42.058;27.986;2023-06-24T07:45:47;7.82;;;7.10;;
32826;SDS011;51059;42.058;27.986;2023-06-24T07:48:13;10.75;;;7.80;;
32826;SDS011;51059;42.058;27.986;2023-06-24T07:50:39;10.30;;;7.78;;
32826;SDS011;51059;42.058;27.986;2023-06-24T07:53:05;11.73;;;7.75;;
32826;SDS011;51059;42.058;27.986;2023-06-24T07:55:31;8.43;;;7.13;;
32826;SDS011;51059;42.058;27.986;2023-06-24T07:57:57;7.63;;;6.65;;
32826;SDS011;51059;42.058;27.986;2023-06-24T08:00:28;10.00;;;7.38;;
32826;SDS011;51059;42.058;27.986;2023-06-24T08:02:53;9.55;;;7.25;;
32826;SDS011;51059;42.058;27.986;2023-06-24T08:05:21;9.27;;;7.32;;
32826;SDS011;51059;42.058;27.986;2023-06-24T08:07:47;8.27;;;7.22;;
32826;SDS011;51059;42.058;27.986;2023-06-24T08:10:13;11.40;;;7.70;;
32826;SDS011;51059;42.058;27.986;2023-06-24T08:12:45;10.48;;;7.10;;
32826;SDS011;51059;42.058;27.986;2023-06-24T08:15:11;9.73;;;7.55;;
32826;SDS011;51059;42.058;27.986;2023-06-24T08:17:37;8.45;;;7.18;;
32826;SDS011;51059;42.058;27.986;2023-06-24T08:20:03;9.80;;;7.65;;
32826;SDS011;51059;42.058;27.986;2023-06-24T08:22:29;15.20;;;7.22;;
32826;SDS011;51059;42.058;27.986;2023-06-24T08:24:55;12.95;;;7.78;;
32826;SDS011;51059;42.058;27.986;2023-06-24T08:27:20;7.68;;;7.00;;
32826;SDS011;51059;42.058;27.986;2023-06-24T08:29:46;8.80;;;7.65;;
32826;SDS011;51059;42.058;27.986;2023-06-24T08:32:12;12.35;;;7.72;;
32826;SDS011;51059;42.058;27.986;2023-06-24T08:34:38;11.68;;;7.20;;
32826;SDS011;51059;42.058;27.986;2023-06-24T08:37:04;8.80;;;7.90;;
32826;SDS011;51059;42.058;27.986;2023-06-24T08:39:29;8.30;;;7.50;;
32826;SDS011;51059;42.058;27.986;2023-06-24T08:41:55;10.45;;;8.02;;
32826;SDS011;51059;42.058;27.986;2023-06-24T08:44:23;8.32;;;7.43;;
32826;SDS011;51059;42.058;27.986;2023-06-24T08:46:50;10.65;;;7.97;;
32826;SDS011;51059;42.058;27.986;2023-06-24T08:51:53;11.30;;;7.82;;
32826;SDS011;51059;42.058;27.986;2023-06-24T08:54:20;9.07;;;6.70;;
32826;SDS011;51059;42.058;27.986;2023-06-24T08:56:46;9.25;;;7.43;;
32826;SDS011;51059;42.058;27.986;2023-06-24T08:59:12;11.27;;;7.80;;
32826;SDS011;51059;42.058;27.986;2023-06-24T09:01:38;8.90;;;7.40;;
32826;SDS011;51059;42.058;27.986;2023-06-24T09:04:04;7.93;;;7.15;;
32826;SDS011;51059;42.058;27.986;2023-06-24T09:06:33;8.27;;;7.13;;
32826;SDS011;51059;42.058;27.986;2023-06-24T09:08:59;9.25;;;7.65;;
32826;SDS011;51059;42.058;27.986;2023-06-24T09:11:25;14.18;;;7.40;;
32826;SDS011;51059;42.058;27.986;2023-06-24T09:13:55;9.07;;;7.35;;
32826;SDS011;51059;42.058;27.986;2023-06-24T09:16:23;9.20;;;7.32;;
32826;SDS011;51059;42.058;27.986;2023-06-24T09:18:49;8.75;;;7.10;;
32826;SDS011;51059;42.058;27.986;2023-06-24T09:21:22;11.07;;;7.40;;
32826;SDS011;51059;42.058;27.986;2023-06-24T09:23:51;11.15;;;7.07;;
32826;SDS011;51059;42.058;27.986;2023-06-24T09:28:49;10.85;;;7.10;;
32826;SDS011;51059;42.058;27.986;2023-06-24T09:31:15;9.50;;;7.18;;
32826;SDS011;51059;42.058;27.986;2023-06-24T09:33:41;10.02;;;7.28;;
32826;SDS011;51059;42.058;27.986;2023-06-24T09:36:07;12.40;;;7.10;;
32826;SDS011;51059;42.058;27.986;2023-06-24T09:38:36;11.55;;;6.65;;
32826;SDS011;51059;42.058;27.986;2023-06-24T09:41:03;11.90;;;7.28;;
32826;SDS011;51059;42.058;27.986;2023-06-24T09:43:35;8.20;;;7.22;;
32826;SDS011;51059;42.058;27.986;2023-06-24T09:46:07;10.63;;;7.07;;
32826;SDS011;51059;42.058;27.986;2023-06-24T09:48:34;10.40;;;7.30;;
32826;SDS011;51059;42.058;27.986;2023-06-24T09:51:00;8.02;;;6.80;;
32826;SDS011;51059;42.058;27.986;2023-06-24T09:53:31;11.45;;;6.82;;
32826;SDS011;51059;42.058;27.986;2023-06-24T09:55:57;8.70;;;6.53;;
32826;SDS011;51059;42.058;27.986;2023-06-24T09:58:24;7.97;;;6.93;;
32826;SDS011;51059;42.058;27.986;2023-06-24T10:00:50;11.07;;;7.03;;
32826;SDS011;51059;42.058;27.986;2023-06-24T10:03:17;13.02;;;7.10;;
32826;SDS011;51059;42.058;27.986;2023-06-24T10:05:42;7.90;;;6.75;;
32826;SDS011;51059;42.058;27.986;2023-06-24T10:08:08;8.70;;;6.65;;
32826;SDS011;51059;42.058;27.986;2023-06-24T10:10:34;7.93;;;7.00;;
32826;SDS011;51059;42.058;27.986;2023-06-24T10:13:00;13.05;;;6.95;;
32826;SDS011;51059;42.058;27.986;2023-06-24T10:15:26;14.70;;;7.38;;
32826;SDS011;51059;42.058;27.986;2023-06-24T10:17:53;7.57;;;6.78;;
32826;SDS011;51059;42.058;27.986;2023-06-24T10:20:24;12.60;;;6.93;;
32826;SDS011;51059;42.058;27.986;2023-06-24T10:22:51;9.77;;;6.85;;
32826;SDS011;51059;42.058;27.986;2023-06-24T10:25:17;10.52;;;6.90;;
32826;SDS011;51059;42.058;27.986;2023-06-24T10:27:43;8.00;;;6.50;;
32826;SDS011;51059;42.058;27.986;2023-06-24T10:30:09;7.35;;;6.70;;
32826;SDS011;51059;42.058;27.986;2023-06-24T10:32:42;10.32;;;6.97;;
32826;SDS011;51059;42.058;27.986;2023-06-24T10:35:30;9.38;;;6.82;;
32826;SDS011;51059;42.058;27.986;2023-06-24T10:37:56;9.57;;;7.03;;
32826;SDS011;51059;42.058;27.986;2023-06-24T10:40:36;11.57;;;7.22;;
32826;SDS011;51059;42.058;27.986;2023-06-24T10:43:05;9.43;;;6.70;;
32826;SDS011;51059;42.058;27.986;2023-06-24T10:45:55;11.90;;;7.25;;
32826;SDS011;51059;42.058;27.986;2023-06-24T10:48:21;10.43;;;6.90;;
32826;SDS011;51059;42.058;27.986;2023-06-24T10:50:47;9.27;;;6.38;;
32826;SDS011;51059;42.058;27.986;2023-06-24T10:53:14;7.97;;;5.90;;
32826;SDS011;51059;42.058;27.986;2023-06-24T10:55:40;8.35;;;6.38;;
32826;SDS011;51059;42.058;27.986;2023-06-24T10:58:12;11.50;;;6.25;;
32826;SDS011;51059;42.058;27.986;2023-06-24T11:00:40;11.10;;;6.20;;
32826;SDS011;51059;42.058;27.986;2023-06-24T11:03:09;8.10;;;6.20;;
32826;SDS011;51059;42.058;27.986;2023-06-24T11:05:37;11.35;;;6.60;;
32826;SDS011;51059;42.058;27.986;2023-06-24T11:08:04;8.70;;;6.55;;
32826;SDS011;51059;42.058;27.986;2023-06-24T11:10:30;7.78;;;6.05;;
32826;SDS011;51059;42.058;27.986;2023-06-24T11:12:56;11.07;;;6.47;;
32826;SDS011;51059;42.058;27.986;2023-06-24T11:15:24;9.32;;;6.40;;
32826;SDS011;51059;42.058;27.986;2023-06-24T11:17:50;10.55;;;6.65;;
32826;SDS011;51059;42.058;27.986;2023-06-24T11:20:16;8.57;;;6.82;;
32826;SDS011;51059;42.058;27.986;2023-06-24T11:22:42;8.55;;;6.80;;
32826;SDS011;51059;42.058;27.986;2023-06-24T11:25:18;12.23;;;7.00;;
32826;SDS011;51059;42.058;27.986;2023-06-24T11:27:44;8.77;;;5.82;;
32826;SDS011;51059;42.058;27.986;2023-06-24T11:30:10;6.45;;;5.85;;
32826;SDS011;51059;42.058;27.986;2023-06-24T11:32:40;7.15;;;5.57;;
32826;SDS011;51059;42.058;27.986;2023-06-24T11:35:10;11.88;;;6.18;;
32826;SDS011;51059;42.058;27.986;2023-06-24T11:37:37;10.30;;;6.18;;
32826;SDS011;51059;42.058;27.986;2023-06-24T11:40:03;10.85;;;5.95;;
32826;SDS011;51059;42.058;27.986;2023-06-24T11:42:31;8.07;;;7.07;;
32826;SDS011;51059;42.058;27.986;2023-06-24T11:45:01;8.90;;;6.47;;
32826;SDS011;51059;42.058;27.986;2023-06-24T11:47:26;7.18;;;6.20;;
32826;SDS011;51059;42.058;27.986;2023-06-24T11:49:54;9.05;;;6.55;;
32826;SDS011;51059;42.058;27.986;2023-06-24T11:52:42;8.52;;;6.05;;
32826;SDS011;51059;42.058;27.986;2023-06-24T11:55:15;9.20;;;6.43;;
32826;SDS011;51059;42.058;27.986;2023-06-24T12:00:28;11.35;;;6.15;;
32826;SDS011;51059;42.058;27.986;2023-06-24T12:02:55;11.20;;;6.47;;
32826;SDS011;51059;42.058;27.986;2023-06-24T12:05:28;10.95;;;6.13;;
32826;SDS011;51059;42.058;27.986;2023-06-24T12:07:55;9.27;;;6.13;;
32826;SDS011;51059;42.058;27.986;2023-06-24T12:10:21;9.23;;;6.40;;
32826;SDS011;51059;42.058;27.986;2023-06-24T12:12:48;9.75;;;6.32;;
32826;SDS011;51059;42.058;27.986;2023-06-24T12:15:14;8.27;;;5.95;;
32826;SDS011;51059;42.058;27.986;2023-06-24T12:17:40;8.05;;;6.07;;
32826;SDS011;51059;42.058;27.986;2023-06-24T12:20:06;7.55;;;6.03;;
32826;SDS011;51059;42.058;27.986;2023-06-24T12:22:33;13.00;;;6.30;;
32826;SDS011;51059;42.058;27.986;2023-06-24T12:24:58;10.20;;;6.53;;
32826;SDS011;51059;42.058;27.986;2023-06-24T12:27:24;10.73;;;6.50;;
32826;SDS011;51059;42.058;27.986;2023-06-24T12:29:50;10.02;;;6.07;;
32826;SDS011;51059;42.058;27.986;2023-06-24T12:32:16;6.70;;;6.00;;
32826;SDS011;51059;42.058;27.986;2023-06-24T12:34:43;11.82;;;6.47;;
32826;SDS011;51059;42.058;27.986;2023-06-24T12:37:09;10.65;;;6.55;;
32826;SDS011;51059;42.058;27.986;2023-06-24T12:39:34;9.52;;;6.13;;
32826;SDS011;51059;42.058;27.986;2023-06-24T12:42:00;10.00;;;6.35;;
32826;SDS011;51059;42.058;27.986;2023-06-24T12:44:26;7.88;;;6.13;;
32826;SDS011;51059;42.058;27.986;2023-06-24T12:46:52;10.55;;;6.68;;
32826;SDS011;51059;42.058;27.986;2023-06-24T12:49:18;9.95;;;6.43;;
32826;SDS011;51059;42.058;27.986;2023-06-24T12:51:44;11.10;;;6.10;;
32826;SDS011;51059;42.058;27.986;2023-06-24T12:54:11;10.98;;;7.75;;
32826;SDS011;51059;42.058;27.986;2023-06-24T12:56:37;11.82;;;6.38;;
32826;SDS011;51059;42.058;27.986;2023-06-24T12:59:04;9.52;;;5.90;;
32826;SDS011;51059;42.058;27.986;2023-06-24T13:01:32;9.05;;;6.00;;
32826;SDS011;51059;42.058;27.986;2023-06-24T13:03:58;10.68;;;6.15;;
32826;SDS011;51059;42.058;27.986;2023-06-24T13:06:24;6.97;;;6.28;;
32826;SDS011;51059;42.058;27.986;2023-06-24T13:08:50;6.75;;;6.03;;
32826;SDS011;51059;42.058;27.986;2023-06-24T13:11:16;16.85;;;6.22;;
32826;SDS011;51059;42.058;27.986;2023-06-24T13:13:41;8.25;;;5.97;;
32826;SDS011;51059;42.058;27.986;2023-06-24T13:16:06;9.05;;;6.72;;
32826;SDS011;51059;42.058;27.986;2023-06-24T13:18:32;8.50;;;6.15;;
32826;SDS011;51059;42.058;27.986;2023-06-24T13:20:57;10.85;;;5.90;;
32826;SDS011;51059;42.058;27.986;2023-06-24T13:23:23;9.85;;;5.82;;
32826;SDS011;51059;42.058;27.986;2023-06-24T13:25:49;9.80;;;6.32;;
32826;SDS011;51059;42.058;27.986;2023-06-24T13:28:14;9.55;;;5.75;;
32826;SDS011;51059;42.058;27.986;2023-06-24T13:30:41;12.77;;;6.32;;
32826;SDS011;51059;42.058;27.986;2023-06-24T13:33:07;7.95;;;6.05;;
32826;SDS011;51059;42.058;27.986;2023-06-24T13:35:33;11.35;;;6.00;;
32826;SDS011;51059;42.058;27.986;2023-06-24T13:37:59;9.70;;;6.00;;
32826;SDS011;51059;42.058;27.986;2023-06-24T13:40:25;7.75;;;6.00;;
32826;SDS011;51059;42.058;27.986;2023-06-24T13:42:51;8.38;;;5.90;;
32826;SDS011;51059;42.058;27.986;2023-06-24T13:45:18;9.10;;;5.63;;
32826;SDS011;51059;42.058;27.986;2023-06-24T13:47:43;10.85;;;6.15;;
32826;SDS011;51059;42.058;27.986;2023-06-24T13:50:09;8.02;;;5.82;;
32826;SDS011;51059;42.058;27.986;2023-06-24T13:52:35;14.93;;;5.47;;
32826;SDS011;51059;42.058;27.986;2023-06-24T13:55:00;8.63;;;6.10;;
32826;SDS011;51059;42.058;27.986;2023-06-24T13:57:26;7.18;;;5.80;;
32826;SDS011;51059;42.058;27.986;2023-06-24T13:59:53;8.95;;;5.38;;
32826;SDS011;51059;42.058;27.986;2023-06-24T14:02:19;10.05;;;5.90;;
32826;SDS011;51059;42.058;27.986;2023-06-24T14:04:45;10.00;;;6.00;;
32826;SDS011;51059;42.058;27.986;2023-06-24T14:07:10;13.32;;;5.80;;
32826;SDS011;51059;42.058;27.986;2023-06-24T14:09:37;11.85;;;6.03;;
32826;SDS011;51059;42.058;27.986;2023-06-24T14:12:04;10.93;;;6.22;;
32826;SDS011;51059;42.058;27.986;2023-06-24T14:14:30;9.73;;;5.43;;
32826;SDS011;51059;42.058;27.986;2023-06-24T14:16:56;12.35;;;5.45;;
32826;SDS011;51059;42.058;27.986;2023-06-24T14:19:22;11.13;;;6.25;;
32826;SDS011;51059;42.058;27.986;2023-06-24T14:21:49;12.48;;;6.32;;
32826;SDS011;51059;42.058;27.986;2023-06-24T14:24:15;12.65;;;6.07;;
32826;SDS011;51059;42.058;27.986;2023-06-24T14:26:41;12.05;;;5.78;;
32826;SDS011;51059;42.058;27.986;2023-06-24T14:29:07;10.50;;;5.35;;
32826;SDS011;51059;42.058;27.986;2023-06-24T14:31:33;9.65;;;5.68;;
32826;SDS011;51059;42.058;27.986;2023-06-24T14:33:59;10.82;;;6.05;;
32826;SDS011;51059;42.058;27.986;2023-06-24T14:36:24;10.68;;;5.60;;
32826;SDS011;51059;42.058;27.986;2023-06-24T14:38:50;11.45;;;5.90;;
32826;SDS011;51059;42.058;27.986;2023-06-24T14:41:16;12.10;;;5.78;;